CPX327 Details

Departure: Cincinnati/Northern Kentucky International Airport (KCVG)
Arrival: Miami International Airport (KMIA)
Route: KENLN4 HYK VXV J43 ATL J89 OTK JUULI SSCOT5


Current Weather Information
KCVG 212152Z 11012KT 10SM FEW110 FEW240 SCT300 21/09 A3002 RMK AO2 SLP162 T02060094
KMIA 212153Z 11011KT 10SM FEW044 FEW060 FEW250 31/19 A2992 RMK AO2 SLP133 T03060189